Time;durP1;ratioP1;P1;durP2;ratioP2;P2;SDS_P1;SDS_P2;PMS_P1;PMS_P2;Temp;Humidity;BMP_temperature;BMP_pressure;BME280_temperature;BME280_humidity;BME280_pressure;Samples;Min_cycle;Max_cycle;Signal;HPM_P1;HPM_P2
2024/04/10 00:00:12;;;;;;;;;;;9.10;99.90;;;;;;5285418;27;19939;-92
2024/04/10 00:02:38;;;;;;;;;;;9.20;99.90;;;;;;5258951;27;19941;-91
2024/04/10 00:05:04;;;;;;;;;;;9.20;99.90;;;;;;5256207;27;19945;-92
2024/04/10 00:07:29;;;;;;;;;;;9.10;99.90;;;;;;5284878;27;19930;-91
2024/04/10 00:09:55;;;;;;;;;;;9.20;99.90;;;;;;5257355;27;20001;-91
2024/04/10 00:12:21;;;;;;;;;;;9.30;99.90;;;;;;5255711;27;19939;-91
2024/04/10 00:14:47;;;;;;;;;;;9.20;99.90;;;;;;5257085;27;19949;-91
2024/04/10 00:17:13;;;;;;;;;;;8.90;99.90;;;;;;5257054;27;19931;-91
2024/04/10 00:19:38;;;;;;;;;;;8.90;99.90;;;;;;5257002;27;19930;-91
2024/04/10 00:22:04;;;;;;;;;;;9.00;99.90;;;;;;5257005;27;19934;-92
2024/04/10 00:24:30;;;;;;;;;;;8.20;99.90;;;;;;5257821;27;20360;-91
2024/04/10 00:26:56;;;;;;;;;;;8.90;99.90;;;;;;5257462;27;19930;-91
2024/04/10 00:29:22;;;;;;;;;;;9.00;99.90;;;;;;5257510;27;20253;-91
2024/04/10 00:31:50;;;;;;;;;;;8.80;99.90;;;;;;5257271;27;19938;-91
2024/04/10 00:34:17;;;;;;;;;;;9.10;99.90;;;;;;5257115;27;19941;-91
2024/04/10 00:36:43;;;;;;;;;;;9.00;99.90;;;;;;5257057;27;19931;-91
2024/04/10 00:39:09;;;;;;;;;;;9.00;99.90;;;;;;5257011;27;19931;-91
2024/04/10 00:41:35;;;;;;;;;;;9.10;99.90;;;;;;5255699;27;19942;-91
2024/04/10 00:44:00;;;;;;;;;;;9.00;99.90;;;;;;5256944;27;19937;-91
2024/04/10 00:46:27;;;;;;;;;;;8.80;99.90;;;;;;5284942;27;19930;-91
2024/04/10 00:48:53;;;;;;;;;;;9.00;99.90;;;;;;5284318;27;19934;-91
2024/04/10 00:51:19;;;;;;;;;;;9.00;99.90;;;;;;5256725;27;19930;-91
2024/04/10 00:53:46;;;;;;;;;;;9.00;99.90;;;;;;5256823;27;19942;-91
2024/04/10 00:56:12;;;;;;;;;;;9.00;99.90;;;;;;5314649;27;19930;-91
2024/04/10 00:58:38;;;;;;;;;;;9.00;99.90;;;;;;5256745;27;20030;-92
2024/04/10 01:01:04;;;;;;;;;;;8.90;99.90;;;;;;5256689;27;20001;-91
2024/04/10 01:03:33;;;;;;;;;;;8.90;99.90;;;;;;5283408;27;19943;-91
2024/04/10 01:06:03;;;;;;;;;;;8.90;99.90;;;;;;5255599;27;19930;-91
2024/04/10 01:08:29;;;;;;;;;;;8.80;99.90;;;;;;5284138;27;19931;-91
2024/04/10 01:10:55;;;;;;;;;;;8.90;99.90;;;;;;5283478;27;20423;-91
2024/04/10 01:13:20;;;;;;;;;;;8.90;99.90;;;;;;5285440;27;19935;-91
2024/04/10 01:15:46;;;;;;;;;;;9.00;99.90;;;;;;5256397;27;19937;-91
2024/04/10 01:18:12;;;;;;;;;;;8.70;99.90;;;;;;5255642;27;19969;-91
2024/04/10 01:20:37;;;;;;;;;;;8.50;99.90;;;;;;5256552;27;19954;-91
2024/04/10 01:23:03;;;;;;;;;;;8.50;99.90;;;;;;5256518;27;20004;-91
2024/04/10 01:25:29;;;;;;;;;;;8.70;99.90;;;;;;5284709;27;19934;-91
2024/04/10 01:27:55;;;;;;;;;;;8.70;99.90;;;;;;5256001;27;19941;-91
2024/04/10 01:30:21;;;;;;;;;;;8.70;99.90;;;;;;5256428;27;19958;-91
2024/04/10 01:32:46;;;;;;;;;;;8.80;99.90;;;;;;5255190;27;19996;-91
2024/04/10 01:35:12;;;;;;;;;;;8.70;99.90;;;;;;5314144;27;20001;-91
2024/04/10 01:37:38;;;;;;;;;;;8.50;99.90;;;;;;5255652;27;19942;-91
2024/04/10 01:40:04;;;;;;;;;;;8.40;99.90;;;;;;5255571;27;19938;-92
2024/04/10 01:42:29;;;;;;;;;;;8.60;99.90;;;;;;5256140;27;19938;-91
2024/04/10 01:44:55;;;;;;;;;;;8.60;99.90;;;;;;5284039;27;20000;-91
2024/04/10 01:47:21;;;;;;;;;;;8.50;99.90;;;;;;5255273;27;20265;-91
2024/04/10 01:49:46;;;;;;;;;;;8.40;99.90;;;;;;5284093;27;19930;-91
2024/04/10 01:52:12;;;;;;;;;;;8.40;99.90;;;;;;5256380;27;19931;-91
2024/04/10 01:54:38;;;;;;;;;;;8.40;99.90;;;;;;5256052;27;19931;-91
2024/04/10 01:57:03;;;;;;;;;;;8.50;99.90;;;;;;5314469;27;19941;-91
2024/04/10 01:59:29;;;;;;;;;;;8.60;99.90;;;;;;5256078;27;20264;-91
2024/04/10 02:01:54;;;;;;;;;;;8.60;99.90;;;;;;5254648;27;20358;-91
2024/04/10 02:04:20;;;;;;;;;;;8.50;99.90;;;;;;5256093;27;19938;-91
2024/04/10 02:06:46;;;;;;;;;;;8.60;99.90;;;;;;5254750;27;19941;-92
2024/04/10 02:09:11;;;;;;;;;;;8.70;99.90;;;;;;5281794;27;19942;-91
2024/04/10 02:11:38;;;;;;;;;;;8.60;99.90;;;;;;5255633;27;19931;-91
2024/04/10 02:14:04;;;;;;;;;;;8.70;99.90;;;;;;5256059;27;19958;-91
2024/04/10 02:16:30;;;;;;;;;;;8.80;99.90;;;;;;5313721;27;20369;-91
2024/04/10 02:18:56;;;;;;;;;;;8.70;99.90;;;;;;5255211;27;19931;-91
2024/04/10 02:21:22;;;;;;;;;;;8.60;99.90;;;;;;5255744;27;19930;-91
2024/04/10 02:23:51;;;;;;;;;;;8.70;99.90;;;;;;5255525;27;19935;-91
2024/04/10 02:26:17;;;;;;;;;;;8.70;99.90;;;;;;5283534;27;19930;-92
2024/04/10 02:28:43;;;;;;;;;;;8.70;99.90;;;;;;5255762;27;19949;-92
2024/04/10 02:31:09;;;;;;;;;;;8.40;99.90;;;;;;5254554;27;19935;-91
2024/04/10 02:33:37;;;;;;;;;;;8.50;99.90;;;;;;5255416;27;19931;-91
2024/04/10 02:36:03;;;;;;;;;;;8.50;99.90;;;;;;5283076;27;20358;-91
2024/04/10 02:38:29;;;;;;;;;;;8.20;99.90;;;;;;5283119;27;20377;-91
2024/04/10 02:40:55;;;;;;;;;;;8.20;99.90;;;;;;5255610;27;19934;-91
2024/04/10 02:43:22;;;;;;;;;;;8.20;99.90;;;;;;5255620;27;19940;-91
2024/04/10 02:45:54;;;;;;;;;;;8.20;99.90;;;;;;5254760;27;20353;-91
2024/04/10 02:48:20;;;;;;;;;;;8.30;99.90;;;;;;5255310;27;19962;-91
2024/04/10 02:50:46;;;;;;;;;;;8.20;99.90;;;;;;5255145;27;19931;-91
2024/04/10 02:53:11;;;;;;;;;;;8.00;99.90;;;;;;5255195;27;19938;-92
2024/04/10 02:55:37;;;;;;;;;;;8.00;99.90;;;;;;5283209;27;20358;-92
2024/04/10 02:58:03;;;;;;;;;;;8.00;99.90;;;;;;5254825;27;20458;-91
2024/04/10 03:00:29;;;;;;;;;;;7.20;99.90;;;;;;5282278;27;19930;-92
2024/04/10 03:02:54;;;;;;;;;;;8.10;99.90;;;;;;5254923;27;20292;-91
2024/04/10 03:05:20;;;;;;;;;;;8.30;99.90;;;;;;5253708;27;19930;-91
2024/04/10 03:07:46;;;;;;;;;;;8.30;99.90;;;;;;5282569;27;20393;-91
2024/04/10 03:10:15;;;;;;;;;;;8.40;99.90;;;;;;5254948;27;20354;-92
2024/04/10 03:12:41;;;;;;;;;;;8.60;99.90;;;;;;5255165;27;19934;-91
2024/04/10 03:15:07;;;;;;;;;;;8.70;99.90;;;;;;5254109;27;19941;-92
2024/04/10 03:17:32;;;;;;;;;;;8.70;99.90;;;;;;5255031;27;19931;-92
2024/04/10 03:19:59;;;;;;;;;;;8.50;99.90;;;;;;5255699;27;19942;-91
2024/04/10 03:22:25;;;;;;;;;;;8.80;99.90;;;;;;5258472;27;19958;-91
2024/04/10 03:24:50;;;;;;;;;;;8.60;99.90;;;;;;5257941;27;19938;-91
2024/04/10 03:27:16;;;;;;;;;;;8.50;99.90;;;;;;5257672;27;19930;-92
2024/04/10 03:29:42;;;;;;;;;;;8.70;99.90;;;;;;5285349;27;19943;-91
2024/04/10 03:32:08;;;;;;;;;;;8.70;99.90;;;;;;5286098;27;19945;-91
2024/04/10 03:34:33;;;;;;;;;;;8.50;99.90;;;;;;5256641;27;19942;-91
2024/04/10 03:36:59;;;;;;;;;;;8.50;99.90;;;;;;5256942;27;19938;-91
2024/04/10 03:39:24;;;;;;;;;;;8.30;99.90;;;;;;5316286;27;19937;-91
2024/04/10 03:41:50;;;;;;;;;;;8.50;99.90;;;;;;5285901;27;19931;-91
2024/04/10 03:44:16;;;;;;;;;;;8.30;99.90;;;;;;5285364;27;19938;-91
2024/04/10 03:46:42;;;;;;;;;;;8.40;99.90;;;;;;5257679;27;19967;-91
2024/04/10 03:49:07;;;;;;;;;;;8.60;99.90;;;;;;5257982;27;20004;-91
2024/04/10 03:51:34;;;;;;;;;;;8.60;99.90;;;;;;5285858;27;19939;-91
2024/04/10 03:53:59;;;;;;;;;;;8.50;99.90;;;;;;5257307;27;19939;-91
2024/04/10 03:56:25;;;;;;;;;;;8.40;99.90;;;;;;5257266;27;20316;-92
2024/04/10 03:58:51;;;;;;;;;;;8.10;99.90;;;;;;5284531;27;19942;-92
2024/04/10 04:01:17;;;;;;;;;;;8.40;99.90;;;;;;5257519;27;19938;-92
2024/04/10 04:03:42;;;;;;;;;;;8.30;99.90;;;;;;5256393;27;19942;-91
2024/04/10 04:06:08;;;;;;;;;;;8.10;99.90;;;;;;5256971;27;20369;-91
2024/04/10 04:08:33;;;;;;;;;;;8.30;99.90;;;;;;5257481;27;19938;-91
2024/04/10 04:11:04;;;;;;;;;;;8.30;99.90;;;;;;5257116;27;19937;-91
2024/04/10 04:13:31;;;;;;;;;;;8.40;99.90;;;;;;5286005;27;19941;-91
2024/04/10 04:15:56;;;;;;;;;;;8.30;99.90;;;;;;5257829;27;19943;-91
2024/04/10 04:18:22;;;;;;;;;;;8.10;99.90;;;;;;5285340;27;19930;-91
2024/04/10 04:20:48;;;;;;;;;;;8.30;99.90;;;;;;5257331;27;19937;-91
2024/04/10 04:23:13;;;;;;;;;;;8.40;99.90;;;;;;5257250;27;19938;-91
2024/04/10 04:25:39;;;;;;;;;;;8.50;99.90;;;;;;5284837;27;20273;-91
2024/04/10 04:28:05;;;;;;;;;;;8.60;99.90;;;;;;5256232;27;19939;-91
2024/04/10 04:30:30;;;;;;;;;;;8.20;99.90;;;;;;5256547;27;19935;-92
2024/04/10 04:32:56;;;;;;;;;;;8.30;99.90;;;;;;5254380;27;19937;-91
2024/04/10 04:35:21;;;;;;;;;;;8.30;99.90;;;;;;5256775;27;20005;-91
2024/04/10 04:37:53;;;;;;;;;;;8.60;99.90;;;;;;5256937;27;19937;-91
2024/04/10 04:40:20;;;;;;;;;;;8.60;99.90;;;;;;5256702;27;19937;-91
2024/04/10 04:42:45;;;;;;;;;;;8.40;99.90;;;;;;5284282;27;20000;-92
2024/04/10 04:45:11;;;;;;;;;;;8.10;99.90;;;;;;5256465;27;19966;-91
2024/04/10 04:47:37;;;;;;;;;;;8.00;99.90;;;;;;5285037;27;19930;-91
2024/04/10 04:50:03;;;;;;;;;;;8.20;99.90;;;;;;5256675;27;19934;-92
2024/04/10 04:52:28;;;;;;;;;;;8.00;99.90;;;;;;5315284;27;20358;-92
2024/04/10 04:54:54;;;;;;;;;;;8.00;99.90;;;;;;5256137;27;19942;-91
2024/04/10 04:57:20;;;;;;;;;;;8.20;99.90;;;;;;5256348;27;19937;-91
2024/04/10 04:59:46;;;;;;;;;;;8.30;99.90;;;;;;5256832;27;19930;-91
2024/04/10 05:02:11;;;;;;;;;;;8.40;99.90;;;;;;5255051;27;19938;-91
2024/04/10 05:04:57;;;;;;;;;;;8.20;99.90;;;;;;5255990;27;20000;-91
2024/04/10 05:07:24;;;;;;;;;;;8.10;99.90;;;;;;5284383;27;19970;-91
2024/04/10 05:09:52;;;;;;;;;;;8.30;99.90;;;;;;5283873;27;19935;-92
2024/04/10 05:12:18;;;;;;;;;;;8.10;99.90;;;;;;5256533;27;19930;-91
2024/04/10 05:14:48;;;;;;;;;;;8.00;99.90;;;;;;5256388;27;19934;-92
2024/04/10 05:17:14;;;;;;;;;;;8.10;99.90;;;;;;5255945;27;19941;-91
2024/04/10 05:19:39;;;;;;;;;;;8.50;99.90;;;;;;5256392;27;19931;-92
2024/04/10 05:22:05;;;;;;;;;;;8.60;99.90;;;;;;5256405;27;19931;-92
2024/04/10 05:24:31;;;;;;;;;;;8.60;99.90;;;;;;5284023;27;19934;-91
2024/04/10 05:26:56;;;;;;;;;;;8.40;99.90;;;;;;5255603;27;19977;-91
2024/04/10 05:29:22;;;;;;;;;;;8.60;99.90;;;;;;5283809;27;20001;-91
2024/04/10 05:31:48;;;;;;;;;;;8.50;99.90;;;;;;5283419;27;20368;-91
2024/04/10 05:34:15;;;;;;;;;;;8.50;99.90;;;;;;5256056;27;19935;-91
2024/04/10 05:36:40;;;;;;;;;;;8.40;99.90;;;;;;5284699;27;20139;-91
2024/04/10 05:39:06;;;;;;;;;;;8.90;99.90;;;;;;5255817;27;19930;-91
2024/04/10 05:41:32;;;;;;;;;;;9.10;99.90;;;;;;5255983;27;19935;-91
2024/04/10 05:43:57;;;;;;;;;;;8.90;99.90;;;;;;5314103;27;20389;-92
2024/04/10 05:46:26;;;;;;;;;;;8.80;99.90;;;;;;5255778;27;20000;-92
2024/04/10 05:48:52;;;;;;;;;;;8.80;99.90;;;;;;5256728;27;19963;-91
2024/04/10 05:51:17;;;;;;;;;;;9.00;99.90;;;;;;5256054;27;20268;-91
2024/04/10 05:53:43;;;;;;;;;;;9.00;99.90;;;;;;5283491;27;19937;-91
2024/04/10 05:56:09;;;;;;;;;;;8.60;99.90;;;;;;5255468;27;19943;-92
2024/04/10 05:58:35;;;;;;;;;;;8.60;99.90;;;;;;5283120;27;20349;-92
2024/04/10 06:01:10;;;;;;;;;;;9.00;99.90;;;;;;5255117;27;19937;-91
2024/04/10 06:03:38;;;;;;;;;;;9.10;99.90;;;;;;5255692;27;19930;-91
2024/04/10 06:06:08;;;;;;;;;;;9.00;99.90;;;;;;5255492;27;20401;-91
2024/04/10 06:08:35;;;;;;;;;;;9.00;99.90;;;;;;5255646;27;20354;-92
2024/04/10 06:11:00;;;;;;;;;;;9.00;99.90;;;;;;5255765;27;19938;-91
2024/04/10 06:13:26;;;;;;;;;;;9.00;99.90;;;;;;5255830;27;19930;-92
2024/04/10 06:16:01;;;;;;;;;;;9.10;99.90;;;;;;5313834;27;19930;-92
2024/04/10 06:18:27;;;;;;;;;;;9.00;99.90;;;;;;5255795;27;19930;-92
2024/04/10 06:21:00;;;;;;;;;;;9.30;99.90;;;;;;5283587;27;20007;-92
2024/04/10 06:23:29;;;;;;;;;;;9.40;99.90;;;;;;5254799;27;19946;-91
2024/04/10 06:25:55;;;;;;;;;;;9.40;99.90;;;;;;5313989;27;20000;-92
2024/04/10 06:28:21;;;;;;;;;;;9.60;99.90;;;;;;5254249;27;19942;-91
2024/04/10 06:30:46;;;;;;;;;;;9.60;99.90;;;;;;5255017;27;19941;-92
2024/04/10 06:33:14;;;;;;;;;;;9.70;99.90;;;;;;5283449;27;19930;-92
2024/04/10 06:35:40;;;;;;;;;;;9.70;99.90;;;;;;5255546;27;19938;-92
2024/04/10 06:38:05;;;;;;;;;;;9.50;99.90;;;;;;5254821;27;19938;-92
2024/04/10 06:40:31;;;;;;;;;;;9.30;99.90;;;;;;5283536;27;20432;-92
2024/04/10 06:42:57;;;;;;;;;;;9.60;99.90;;;;;;5283273;27;19931;-92
2024/04/10 06:45:22;;;;;;;;;;;9.90;99.90;;;;;;5255288;27;20365;-91
2024/04/10 06:47:48;;;;;;;;;;;9.60;99.90;;;;;;5254971;27;20261;-91
2024/04/10 06:50:14;;;;;;;;;;;9.20;99.90;;;;;;5282698;27;19935;-91
2024/04/10 06:52:39;;;;;;;;;;;9.40;99.90;;;;;;5254551;27;20350;-91
2024/04/10 06:55:06;;;;;;;;;;;9.70;99.90;;;;;;5311881;27;19938;-92
2024/04/10 06:57:32;;;;;;;;;;;9.60;99.90;;;;;;5254224;27;19937;-92
2024/04/10 07:00:02;;;;;;;;;;;9.60;99.90;;;;;;5254995;27;19931;-91
2024/04/10 07:02:28;;;;;;;;;;;9.60;99.90;;;;;;5256200;27;20000;-91
2024/04/10 07:04:54;;;;;;;;;;;9.50;99.90;;;;;;5254632;27;20336;-91
2024/04/10 07:07:19;;;;;;;;;;;9.50;99.90;;;;;;5254516;27;19934;-91
2024/04/10 07:09:45;;;;;;;;;;;9.60;99.90;;;;;;5282417;27;19942;-92
2024/04/10 07:12:10;;;;;;;;;;;9.70;99.90;;;;;;5255016;27;19931;-91
2024/04/10 07:14:36;;;;;;;;;;;9.50;99.90;;;;;;5254562;27;19931;-92
2024/04/10 07:17:04;;;;;;;;;;;9.40;99.90;;;;;;5313005;27;19981;-91
2024/04/10 07:19:34;;;;;;;;;;;9.50;99.90;;;;;;5282567;27;19938;-91
2024/04/10 07:22:03;;;;;;;;;;;9.30;99.90;;;;;;5312530;27;19931;-92
2024/04/10 07:24:28;;;;;;;;;;;9.50;99.90;;;;;;5254010;27;19931;-91
2024/04/10 07:26:54;;;;;;;;;;;9.40;99.90;;;;;;5253067;27;19938;-91
2024/04/10 07:29:19;;;;;;;;;;;9.30;99.90;;;;;;5283081;27;19930;-92
2024/04/10 07:31:45;;;;;;;;;;;9.60;99.90;;;;;;5254189;27;20001;-91
2024/04/10 07:34:14;;;;;;;;;;;9.90;99.90;;;;;;5254646;27;19930;-91
2024/04/10 07:36:45;;;;;;;;;;;10.00;99.90;;;;;;5254669;27;19937;-91
2024/04/10 07:39:11;;;;;;;;;;;10.20;99.90;;;;;;5254690;27;19930;-91
2024/04/10 07:41:37;;;;;;;;;;;10.30;99.90;;;;;;5282848;27;20000;-91
2024/04/10 07:44:04;;;;;;;;;;;10.40;99.90;;;;;;5254770;27;19938;-91
2024/04/10 07:46:30;;;;;;;;;;;10.40;99.90;;;;;;5282065;27;19935;-91
2024/04/10 07:48:57;;;;;;;;;;;10.30;99.90;;;;;;5281797;27;19982;-91
2024/04/10 07:51:23;;;;;;;;;;;10.40;99.90;;;;;;5254497;27;19938;-91
2024/04/10 07:53:48;;;;;;;;;;;10.40;99.90;;;;;;5253163;27;19939;-91
2024/04/10 07:56:14;;;;;;;;;;;10.40;99.90;;;;;;5281127;27;20495;-91
2024/04/10 07:58:40;;;;;;;;;;;10.50;99.90;;;;;;5253740;27;19946;-91
2024/04/10 08:01:06;;;;;;;;;;;10.50;99.90;;;;;;5282172;27;19931;-91
2024/04/10 08:03:33;;;;;;;;;;;10.80;99.90;;;;;;5282592;27;20369;-92
2024/04/10 08:05:59;;;;;;;;;;;11.00;99.90;;;;;;5254822;27;20366;-92
2024/04/10 08:08:25;;;;;;;;;;;11.00;99.90;;;;;;5256727;27;19931;-91
2024/04/10 08:10:57;;;;;;;;;;;10.80;99.90;;;;;;5257457;27;19982;-91
2024/04/10 08:13:22;;;;;;;;;;;10.70;99.90;;;;;;5258035;27;19931;-91
2024/04/10 08:15:55;;;;;;;;;;;10.90;99.90;;;;;;5257103;27;20398;-92
2024/04/10 08:18:20;;;;;;;;;;;11.10;99.90;;;;;;5285733;27;19937;-92
2024/04/10 08:20:46;;;;;;;;;;;11.20;99.90;;;;;;5257289;27;19931;-92
2024/04/10 08:23:11;;;;;;;;;;;11.10;99.90;;;;;;5284160;27;19937;-92
2024/04/10 08:25:38;;;;;;;;;;;11.50;99.90;;;;;;5256180;27;19930;-91
2024/04/10 08:28:04;;;;;;;;;;;11.20;99.90;;;;;;5256885;27;19931;-91
2024/04/10 08:30:29;;;;;;;;;;;11.30;99.90;;;;;;5256905;27;19931;-91
2024/04/10 08:32:56;;;;;;;;;;;11.70;99.90;;;;;;5257685;27;19931;-92
2024/04/10 08:35:21;;;;;;;;;;;11.80;99.90;;;;;;5256803;27;19942;-92
2024/04/10 08:37:49;;;;;;;;;;;11.50;99.90;;;;;;5256411;27;20026;-92
2024/04/10 08:40:14;;;;;;;;;;;11.70;99.90;;;;;;5257054;27;19930;-92
2024/04/10 08:42:41;;;;;;;;;;;12.20;99.70;;;;;;5257097;27;19931;-92
2024/04/10 08:45:10;;;;;;;;;;;12.50;94.00;;;;;;5284575;27;19958;-91
2024/04/10 08:47:35;;;;;;;;;;;12.60;93.20;;;;;;5315365;27;19955;-92
2024/04/10 08:50:02;;;;;;;;;;;12.30;97.50;;;;;;5284714;27;20000;-92
2024/04/10 08:52:27;;;;;;;;;;;12.20;96.60;;;;;;5255269;27;19937;-91
2024/04/10 08:54:53;;;;;;;;;;;11.50;91.60;;;;;;5256071;27;19930;-92
2024/04/10 08:57:19;;;;;;;;;;;12.30;93.00;;;;;;5285309;27;19935;-91
2024/04/10 08:59:44;;;;;;;;;;;12.30;94.70;;;;;;5256604;27;19931;-92
2024/04/10 09:02:11;;;;;;;;;;;12.30;97.40;;;;;;5256741;27;19930;-92
2024/04/10 09:04:43;;;;;;;;;;;12.70;92.20;;;;;;5256592;27;19930;-92
2024/04/10 09:07:09;;;;;;;;;;;12.70;90.10;;;;;;5256021;27;19939;-92
2024/04/10 09:09:34;;;;;;;;;;;12.60;91.10;;;;;;5256453;27;20000;-92
2024/04/10 09:12:00;;;;;;;;;;;12.70;89.70;;;;;;5255983;27;19930;-92
2024/04/10 09:14:27;;;;;;;;;;;12.40;84.20;;;;;;5284739;27;19930;-92
2024/04/10 09:16:53;;;;;;;;;;;12.60;84.50;;;;;;5256474;27;19941;-92
2024/04/10 09:19:18;;;;;;;;;;;12.50;84.00;;;;;;5255856;27;19962;-92
2024/04/10 09:21:45;;;;;;;;;;;12.50;87.30;;;;;;5283084;27;20001;-92
2024/04/10 09:24:13;;;;;;;;;;;12.40;81.90;;;;;;5256151;27;20390;-91
2024/04/10 09:26:41;;;;;;;;;;;12.50;77.50;;;;;;5256401;27;20261;-92
2024/04/10 09:29:09;;;;;;;;;;;12.50;78.70;;;;;;5256346;27;20007;-91
2024/04/10 09:31:34;;;;;;;;;;;12.70;78.10;;;;;;5255799;27;19931;-92
2024/04/10 09:34:00;;;;;;;;;;;12.80;75.40;;;;;;5256246;27;19937;-92
2024/04/10 09:36:33;;;;;;;;;;;13.00;74.80;;;;;;5255892;27;20316;-92
2024/04/10 09:39:05;;;;;;;;;;;13.00;74.90;;;;;;5255862;27;20341;-92
2024/04/10 09:41:36;;;;;;;;;;;12.90;74.00;;;;;;5256986;27;19930;-92
2024/04/10 09:44:05;;;;;;;;;;;13.10;73.50;;;;;;5256337;27;19930;-92
2024/04/10 09:46:38;;;;;;;;;;;13.30;67.00;;;;;;5256105;27;19931;-91
2024/04/10 09:49:14;;;;;;;;;;;13.70;62.10;;;;;;5284286;27;19942;-92
2024/04/10 09:51:41;;;;;;;;;;;13.70;62.90;;;;;;5282858;27;20364;-91
2024/04/10 09:54:07;;;;;;;;;;;13.50;62.00;;;;;;5255961;27;19931;-92
2024/04/10 09:56:36;;;;;;;;;;;13.60;63.40;;;;;;5255887;27;19930;-92
2024/04/10 09:59:03;;;;;;;;;;;13.70;62.80;;;;;;5283682;27;19937;-92
2024/04/10 10:01:29;;;;;;;;;;;14.10;60.40;;;;;;5283801;27;20361;-92
2024/04/10 10:03:56;;;;;;;;;;;14.20;59.20;;;;;;5255695;27;19931;-92
2024/04/10 10:06:26;;;;;;;;;;;14.00;58.70;;;;;;5255383;27;19954;-92
2024/04/10 10:08:51;;;;;;;;;;;14.00;59.90;;;;;;5254465;27;19931;-92
2024/04/10 10:11:20;;;;;;;;;;;14.30;58.00;;;;;;5283707;27;19936;-92
2024/04/10 10:13:55;;;;;;;;;;;14.20;60.60;;;;;;5256042;27;20319;-92
2024/04/10 10:16:25;;;;;;;;;;;14.30;60.10;;;;;;5255190;27;19938;-92
2024/04/10 10:19:00;;;;;;;;;;;14.50;58.10;;;;;;5255565;27;19930;-92
2024/04/10 10:21:29;;;;;;;;;;;14.80;56.50;;;;;;5255025;27;19937;-92
2024/04/10 10:24:04;;;;;;;;;;;14.80;57.80;;;;;;5256432;27;19931;-92
2024/04/10 10:26:30;;;;;;;;;;;14.70;57.80;;;;;;5255854;27;19934;-92
2024/04/10 10:29:05;;;;;;;;;;;15.00;55.80;;;;;;5254609;27;20379;-92
2024/04/10 10:31:31;;;;;;;;;;;15.10;53.20;;;;;;5283335;27;20441;-92
2024/04/10 10:34:00;;;;;;;;;;;15.00;49.60;;;;;;5254544;27;19943;-92
2024/04/10 10:36:25;;;;;;;;;;;14.70;50.40;;;;;;5283632;27;19934;-92
2024/04/10 10:39:08;;;;;;;;;;;14.70;50.60;;;;;;5254473;27;19942;-92
2024/04/10 10:41:34;;;;;;;;;;;14.80;50.80;;;;;;5255794;27;19985;-92
2024/04/10 10:44:00;;;;;;;;;;;15.20;50.90;;;;;;5283152;27;19931;-92
2024/04/10 10:46:29;;;;;;;;;;;15.40;51.00;;;;;;5283593;27;19938;-91
2024/04/10 10:48:55;;;;;;;;;;;15.50;50.00;;;;;;5254141;27;19934;-92
2024/04/10 10:53:12;;;;;;;;;;;14.80;50.90;;;;;;5546228;25;19924;-92
2024/04/10 10:55:38;;;;;;;;;;;15.00;51.60;;;;;;5484540;25;19960;-91
2024/04/10 10:58:04;;;;;;;;;;;14.90;51.10;;;;;;5483964;25;19927;-91
2024/04/10 11:00:31;;;;;;;;;;;15.00;49.10;;;;;;5483441;25;19996;-92
2024/04/10 11:03:07;;;;;;;;;;;15.20;49.80;;;;;;5482844;25;20411;-91
2024/04/10 11:05:32;;;;;;;;;;;16.10;46.90;;;;;;5483564;25;19927;-91
2024/04/10 11:07:58;;;;;;;;;;;16.60;45.10;;;;;;5483026;25;20359;-91
2024/04/10 11:10:25;;;;;;;;;;;16.70;44.10;;;;;;5483445;25;19935;-91
2024/04/10 11:13:01;;;;;;;;;;;16.30;44.40;;;;;;5482884;25;19927;-91
2024/04/10 11:15:27;;;;;;;;;;;16.40;45.30;;;;;;5513954;25;20355;-91
2024/04/10 11:18:00;;;;;;;;;;;17.70;42.50;;;;;;5512585;25;19939;-91
2024/04/10 11:20:25;;;;;;;;;;;18.10;41.90;;;;;;5483212;25;19939;-91
2024/04/10 11:22:57;;;;;;;;;;;17.60;43.40;;;;;;5483053;25;20242;-91
2024/04/10 11:25:22;;;;;;;;;;;16.80;44.20;;;;;;5483684;25;19928;-91
2024/04/10 11:27:49;;;;;;;;;;;16.00;45.70;;;;;;5513758;25;19935;-91
2024/04/10 11:30:15;;;;;;;;;;;16.80;45.10;;;;;;5482966;25;19928;-91
2024/04/10 11:32:40;;;;;;;;;;;17.50;43.20;;;;;;5513622;25;19927;-92
2024/04/10 11:35:09;;;;;;;;;;;17.20;41.50;;;;;;5482610;25;20003;-91
2024/04/10 11:37:35;;;;;;;;;;;16.40;43.20;;;;;;5434511;21;19929;-91
2024/04/10 11:40:01;;;;;;;;;;;16.50;42.90;;;;;;5398765;26;19953;-91
2024/04/10 11:42:27;;;;;;;;;;;17.00;41.60;;;;;;5398472;26;19936;-91
2024/04/10 11:44:53;;;;;;;;;;;17.80;39.80;;;;;;5399001;26;19976;-91
2024/04/10 11:47:18;;;;;;;;;;;19.70;35.60;;;;;;5398059;26;19941;-91
2024/04/10 11:49:44;;;;;;;;;;;20.90;34.80;;;;;;5398966;26;19930;-91
2024/04/10 11:52:10;;;;;;;;;;;22.20;32.10;;;;;;5398879;26;19929;-92
2024/04/10 11:54:35;;;;;;;;;;;23.00;30.00;;;;;;5398965;26;19930;-91
2024/04/10 11:57:05;;;;;;;;;;;22.70;30.20;;;;;;5399061;26;19999;-91
2024/04/10 11:59:31;;;;;;;;;;;21.50;31.40;;;;;;5399022;26;19930;-91
2024/04/10 12:01:57;;;;;;;;;;;21.90;31.40;;;;;;5398724;26;19940;-91
2024/04/10 12:04:22;;;;;;;;;;;22.60;30.60;;;;;;5382850;26;20356;-91
2024/04/10 12:06:48;;;;;;;;;;;22.40;30.20;;;;;;5382961;26;19937;-92
2024/04/10 12:09:14;;;;;;;;;;;22.40;31.30;;;;;;5383635;26;20364;-91
2024/04/10 12:11:39;;;;;;;;;;;23.70;30.30;;;;;;5383088;26;19936;-91
2024/04/10 12:14:05;;;;;;;;;;;23.70;28.50;;;;;;5383328;26;19937;-91
2024/04/10 12:16:30;;;;;;;;;;;22.30;30.00;;;;;;5382408;26;20233;-91
2024/04/10 12:18:56;;;;;;;;;;;22.10;30.00;;;;;;5383426;26;19929;-92
2024/04/10 12:21:22;;;;;;;;;;;21.90;30.30;;;;;;5383458;26;19970;-92
2024/04/10 12:23:47;;;;;;;;;;;22.30;30.00;;;;;;5383253;26;20248;-91
2024/04/10 12:26:14;;;;;;;;;;;23.40;29.20;;;;;;5383405;26;19958;-91
2024/04/10 12:28:39;;;;;;;;;;;23.10;29.10;;;;;;5383392;26;19930;-92
2024/04/10 12:31:05;;;;;;;;;;;24.30;28.20;;;;;;5383310;26;19936;-91
2024/04/10 12:33:30;;;;;;;;;;;22.50;29.40;;;;;;5382697;26;19938;-91
2024/04/10 12:38:44;;;;;;;;;;;23.10;28.60;;;;;;5383652;26;19936;-92
2024/04/10 12:41:10;;;;;;;;;;;24.20;28.30;;;;;;5382854;26;19945;-91
2024/04/10 12:43:40;;;;;;;;;;;24.20;27.50;;;;;;5383117;26;20000;-91
2024/04/10 12:46:06;;;;;;;;;;;23.70;28.20;;;;;;5383049;26;19965;-92
2024/04/10 12:48:32;;;;;;;;;;;22.40;29.40;;;;;;5383195;26;20414;-91
2024/04/10 12:50:58;;;;;;;;;;;20.50;31.40;;;;;;5383130;26;19941;-91
2024/04/10 12:53:24;;;;;;;;;;;20.30;31.70;;;;;;5383221;26;19941;-91
2024/04/10 12:55:50;;;;;;;;;;;20.00;32.70;;;;;;5383272;26;19936;-91
2024/04/10 12:58:16;;;;;;;;;;;20.50;32.50;;;;;;5382267;26;19929;-91
2024/04/10 13:00:41;;;;;;;;;;;21.80;30.40;;;;;;5382531;26;19940;-91
2024/04/10 13:03:07;;;;;;;;;;;23.20;29.10;;;;;;5382462;26;20359;-91
2024/04/10 13:05:33;;;;;;;;;;;23.50;27.90;;;;;;5382333;26;20443;-91
2024/04/10 13:07:59;;;;;;;;;;;23.60;28.10;;;;;;5382432;26;19929;-91
2024/04/10 13:10:24;;;;;;;;;;;23.00;28.30;;;;;;5382405;26;19936;-91
2024/04/10 13:12:50;;;;;;;;;;;22.40;29.20;;;;;;5382370;26;19965;-91
2024/04/10 13:15:16;;;;;;;;;;;21.30;30.00;;;;;;5381993;26;19936;-92
2024/04/10 13:17:41;;;;;;;;;;;22.00;29.90;;;;;;5383093;26;19930;-91
2024/04/10 13:20:07;;;;;;;;;;;22.30;29.60;;;;;;5389031;26;20398;-91
2024/04/10 13:22:33;;;;;;;;;;;21.90;30.00;;;;;;5392328;21;19941;-92
2024/04/10 13:24:58;;;;;;;;;;;21.20;30.20;;;;;;5353430;26;19929;-92
2024/04/10 13:27:24;;;;;;;;;;;20.90;30.20;;;;;;5382199;26;20006;-92
2024/04/10 13:29:50;;;;;;;;;;;19.50;32.50;;;;;;5352692;26;20371;-92
2024/04/10 13:32:15;;;;;;;;;;;20.70;32.70;;;;;;5354868;26;19929;-92
2024/04/10 13:34:41;;;;;;;;;;;23.40;28.90;;;;;;5383524;26;19936;-92
2024/04/10 13:37:08;;;;;;;;;;;25.30;26.60;;;;;;5382843;26;19929;-92
2024/04/10 13:39:33;;;;;;;;;;;25.30;25.60;;;;;;5353682;26;20368;-92
2024/04/10 13:41:59;;;;;;;;;;;24.50;26.40;;;;;;5352856;26;19937;-92
2024/04/10 13:44:25;;;;;;;;;;;22.30;28.70;;;;;;5381890;26;20438;-92
2024/04/10 13:46:50;;;;;;;;;;;23.70;27.30;;;;;;5352802;26;19929;-93
2024/04/10 13:49:16;;;;;;;;;;;25.50;26.40;;;;;;5355873;26;19937;-92
2024/04/10 13:51:42;;;;;;;;;;;25.60;25.50;;;;;;5352642;26;19937;-92
2024/04/10 13:54:07;;;;;;;;;;;24.90;25.90;;;;;;5382732;26;19930;-92
2024/04/10 13:56:33;;;;;;;;;;;24.30;26.60;;;;;;5353404;26;19930;-92
2024/04/10 13:58:59;;;;;;;;;;;23.80;27.60;;;;;;5352822;26;19937;-92
2024/04/10 14:01:24;;;;;;;;;;;24.30;27.20;;;;;;5383289;26;20331;-92
2024/04/10 14:03:52;;;;;;;;;;;24.90;26.20;;;;;;5354837;26;19930;-91
2024/04/10 14:06:19;;;;;;;;;;;25.80;25.50;;;;;;5353928;26;19930;-92
2024/04/10 14:08:45;;;;;;;;;;;26.80;25.20;;;;;;5353582;26;19936;-92
2024/04/10 14:11:11;;;;;;;;;;;25.10;25.80;;;;;;5381780;26;20036;-92
2024/04/10 14:13:38;;;;;;;;;;;25.40;24.90;;;;;;5352933;26;19930;-92
2024/04/10 14:16:05;;;;;;;;;;;25.50;25.40;;;;;;5353852;26;19941;-93
2024/04/10 14:18:30;;;;;;;;;;;25.00;25.80;;;;;;5354897;26;19930;-92
2024/04/10 14:21:05;;;;;;;;;;;24.90;25.50;;;;;;5353655;26;20261;-92
2024/04/10 14:23:31;;;;;;;;;;;26.30;24.90;;;;;;5382037;26;19933;-92